createdAt,value
2022-11-16T00:02:07.005Z,10.29
2022-11-16T00:04:33.609Z,10.23
2022-11-16T00:07:02.654Z,10.34
2022-11-16T00:09:31.938Z,10.27
2022-11-16T00:12:04.221Z,10.01
2022-11-16T00:14:33.233Z,10.26
2022-11-16T00:17:00.321Z,10.25
2022-11-16T00:19:27.695Z,9.92
2022-11-16T00:21:54.747Z,10.04
2022-11-16T00:24:23.239Z,9.80
2022-11-16T00:26:50.167Z,9.83
2022-11-16T00:29:19.329Z,9.85
2022-11-16T00:31:46.635Z,9.87
2022-11-16T00:34:13.562Z,10.00
2022-11-16T00:36:40.136Z,9.87
2022-11-16T00:39:06.587Z,9.87
2022-11-16T00:41:33.170Z,10.02
2022-11-16T00:43:59.562Z,9.94
2022-11-16T00:46:25.984Z,10.09
2022-11-16T00:48:52.471Z,9.99
2022-11-16T00:51:19.012Z,10.03
2022-11-16T00:53:45.398Z,10.07
2022-11-16T00:56:11.920Z,10.06
2022-11-16T00:58:38.357Z,10.05
2022-11-16T01:01:09.389Z,9.79
2022-11-16T01:03:36.815Z,9.90
2022-11-16T01:06:09.904Z,10.07
2022-11-16T01:08:37.671Z,10.06
2022-11-16T01:11:23.766Z,9.79
2022-11-16T01:13:50.557Z,9.82
2022-11-16T01:16:18.272Z,9.83
2022-11-16T01:18:48.319Z,9.82
2022-11-16T01:21:14.773Z,9.81
2022-11-16T01:23:41.170Z,9.95
2022-11-16T01:26:07.702Z,9.90
2022-11-16T01:28:34.453Z,9.78
2022-11-16T01:31:01.227Z,9.59
2022-11-16T01:33:29.256Z,9.60
2022-11-16T01:35:55.684Z,9.82
2022-11-16T01:38:25.937Z,9.81
2022-11-16T01:40:55.053Z,9.70
2022-11-16T01:43:25.837Z,9.71
2022-11-16T01:45:52.707Z,9.89
2022-11-16T01:48:30.129Z,9.44
2022-11-16T01:50:57.818Z,9.63
2022-11-16T01:53:24.830Z,9.83
2022-11-16T01:55:52.134Z,9.78
2022-11-16T01:58:23.119Z,9.56
2022-11-16T02:00:49.804Z,9.66
2022-11-16T02:03:21.652Z,9.57
2022-11-16T02:06:06.804Z,9.46
2022-11-16T02:09:00.947Z,9.46
2022-11-16T02:11:51.972Z,9.60
2022-11-16T02:14:36.724Z,9.53
2022-11-16T02:17:19.733Z,9.52
2022-11-16T02:20:27.000Z,9.43
2022-11-16T02:23:16.782Z,9.21
2022-11-16T02:26:12.388Z,9.29
2022-11-16T02:28:38.933Z,9.51
2022-11-16T02:31:07.462Z,9.46
2022-11-16T02:33:39.000Z,9.48
2022-11-16T02:36:10.060Z,9.45
2022-11-16T02:38:40.386Z,9.31
2022-11-16T02:41:16.990Z,9.35
2022-11-16T02:44:04.791Z,9.34
2022-11-16T02:46:37.372Z,9.47
2022-11-16T02:49:09.585Z,9.33
2022-11-16T02:51:36.799Z,9.35
2022-11-16T02:54:05.498Z,9.35
2022-11-16T02:56:43.972Z,9.57
2022-11-16T02:59:14.145Z,9.71
2022-11-16T03:01:54.894Z,9.55
2022-11-16T03:04:28.251Z,9.71
2022-11-16T03:06:58.165Z,9.59
2022-11-16T03:09:30.248Z,9.61
2022-11-16T03:12:00.771Z,9.64
2022-11-16T03:14:42.977Z,9.65
2022-11-16T03:17:18.269Z,9.59
2022-11-16T03:19:51.791Z,9.52
2022-11-16T03:22:26.242Z,9.42
2022-11-16T03:24:53.093Z,9.39
2022-11-16T03:27:45.466Z,9.46
2022-11-16T03:30:23.506Z,9.31
2022-11-16T03:33:05.708Z,9.29
2022-11-16T03:35:59.453Z,9.22
2022-11-16T03:38:27.804Z,9.41
2022-11-16T03:40:59.812Z,9.49
2022-11-16T03:43:27.827Z,9.14
2022-11-16T03:45:54.841Z,9.30
2022-11-16T03:48:21.259Z,9.21
2022-11-16T03:50:48.004Z,9.26
2022-11-16T03:53:14.416Z,9.21
2022-11-16T03:55:43.437Z,9.28
2022-11-16T03:58:12.143Z,9.21
2022-11-16T04:00:38.725Z,9.47
2022-11-16T04:03:05.144Z,9.39
2022-11-16T04:05:50.134Z,9.36
2022-11-16T04:08:37.739Z,9.59
2022-11-16T04:11:22.694Z,9.76
2022-11-16T04:14:09.579Z,9.74
2022-11-16T04:16:54.870Z,9.65
2022-11-16T04:19:39.658Z,9.66
2022-11-16T04:22:32.469Z,9.49
2022-11-16T04:25:08.339Z,9.43
2022-11-16T04:27:53.936Z,9.62
2022-11-16T04:30:20.616Z,9.39
2022-11-16T04:33:05.660Z,9.26
2022-11-16T04:35:50.215Z,9.18
2022-11-16T04:38:16.870Z,9.17
2022-11-16T04:40:43.321Z,9.22
2022-11-16T04:43:09.841Z,9.40
2022-11-16T04:45:55.359Z,9.63
2022-11-16T04:48:21.913Z,9.61
2022-11-16T04:50:48.381Z,9.27
2022-11-16T04:53:15.411Z,9.40
2022-11-16T04:55:41.884Z,9.49
2022-11-16T04:58:08.425Z,9.59
2022-11-16T05:00:35.003Z,9.70
2022-11-16T05:03:04.109Z,9.58
2022-11-16T05:05:30.858Z,9.66
2022-11-16T05:07:57.241Z,9.76
2022-11-16T05:10:23.851Z,9.78
2022-11-16T05:12:50.252Z,9.62
2022-11-16T05:15:19.852Z,9.56
2022-11-16T05:17:47.659Z,9.40
2022-11-16T05:20:33.244Z,9.39
2022-11-16T05:22:59.781Z,9.42
2022-11-16T05:25:27.475Z,9.47
2022-11-16T05:27:55.889Z,9.63
2022-11-16T05:30:22.369Z,9.81
2022-11-16T05:33:18.026Z,9.86
2022-11-16T05:35:44.452Z,9.84
2022-11-16T05:38:10.972Z,9.94
2022-11-16T05:40:37.338Z,10.04
2022-11-16T05:43:03.807Z,9.94
2022-11-16T05:45:30.247Z,9.99
2022-11-16T05:47:56.849Z,10.00
2022-11-16T05:50:23.265Z,10.12
2022-11-16T05:52:49.651Z,10.19
2022-11-16T05:55:16.352Z,10.22
2022-11-16T05:57:42.986Z,10.18
2022-11-16T06:00:10.097Z,10.05
2022-11-16T06:02:36.655Z,10.01
2022-11-16T06:05:03.264Z,10.09
2022-11-16T06:07:29.787Z,9.95
2022-11-16T06:09:56.229Z,9.84
2022-11-16T06:12:22.847Z,10.02
2022-11-16T06:14:49.292Z,10.05
2022-11-16T06:17:15.847Z,9.96
2022-11-16T06:19:42.281Z,10.08
2022-11-16T06:22:11.014Z,9.93
2022-11-16T06:24:37.574Z,10.01
2022-11-16T06:27:04.031Z,10.14
2022-11-16T06:29:30.453Z,10.01
2022-11-16T06:31:57.026Z,9.95
2022-11-16T06:34:23.982Z,9.98
2022-11-16T06:36:50.487Z,9.91
2022-11-16T06:39:17.260Z,9.90
2022-11-16T06:41:43.636Z,9.87
2022-11-16T06:44:10.131Z,9.87
2022-11-16T06:46:36.682Z,10.00
2022-11-16T06:49:03.110Z,10.04
2022-11-16T06:51:29.522Z,10.11
2022-11-16T06:53:56.070Z,10.05
2022-11-16T06:56:22.805Z,10.07
2022-11-16T06:58:53.064Z,10.15
2022-11-16T07:01:20.123Z,10.07
2022-11-16T07:03:46.905Z,10.00
2022-11-16T07:06:14.466Z,10.10
2022-11-16T07:08:41.150Z,10.17
2022-11-16T07:11:09.552Z,10.23
2022-11-16T07:13:40.264Z,10.28
2022-11-16T07:16:09.816Z,10.32
2022-11-16T07:18:41.564Z,10.32
2022-11-16T07:21:13.740Z,10.28
2022-11-16T07:23:41.004Z,10.30
2022-11-16T07:26:09.416Z,10.37
2022-11-16T07:28:36.409Z,10.11
2022-11-16T07:31:05.964Z,10.15
2022-11-16T07:33:32.799Z,10.15
2022-11-16T07:36:08.051Z,10.28
2022-11-16T07:38:35.166Z,10.14
2022-11-16T07:41:14.098Z,10.09
2022-11-16T07:43:40.897Z,10.03
2022-11-16T07:48:58.569Z,10.35
2022-11-16T07:51:25.033Z,10.40
2022-11-16T07:53:55.875Z,10.21
2022-11-16T07:56:22.657Z,10.33
2022-11-16T07:58:49.229Z,10.87
2022-11-16T08:01:17.488Z,11.00
2022-11-16T08:03:45.788Z,11.32
2022-11-16T08:06:16.322Z,11.95
2022-11-16T08:08:43.226Z,12.48
2022-11-16T08:11:11.846Z,12.38
2022-11-16T08:13:40.407Z,12.81
2022-11-16T08:16:19.272Z,13.54
2022-11-16T08:18:46.772Z,14.29
2022-11-16T08:21:16.108Z,15.02
2022-11-16T08:23:44.678Z,15.35
2022-11-16T08:26:15.244Z,15.33
2022-11-16T08:28:43.721Z,14.96
2022-11-16T08:31:16.468Z,14.63
2022-11-16T08:33:43.271Z,12.88
2022-11-16T08:36:14.387Z,13.11
2022-11-16T08:38:41.146Z,13.25
2022-11-16T08:41:07.813Z,13.29
2022-11-16T08:43:35.815Z,13.30
2022-11-16T08:46:03.148Z,12.59
2022-11-16T08:48:29.751Z,12.47
2022-11-16T08:51:16.938Z,11.93
2022-11-16T08:53:43.991Z,11.77
2022-11-16T08:56:13.622Z,11.75
2022-11-16T08:58:43.533Z,12.12
2022-11-16T09:01:12.252Z,12.33
2022-11-16T09:03:38.916Z,12.59
2022-11-16T09:06:06.708Z,13.67
2022-11-16T09:08:34.159Z,13.82
2022-11-16T09:11:04.255Z,14.14
2022-11-16T09:13:30.763Z,14.15
2022-11-16T09:16:01.294Z,13.97
2022-11-16T09:18:28.940Z,12.78
2022-11-16T09:20:55.792Z,12.97
2022-11-16T09:23:25.498Z,12.92
2022-11-16T09:25:53.137Z,12.95
2022-11-16T09:28:21.307Z,13.71
2022-11-16T09:30:50.650Z,14.35
2022-11-16T09:33:17.562Z,15.41
2022-11-16T09:35:44.292Z,15.07
2022-11-16T09:38:13.633Z,15.68
2022-11-16T09:40:46.383Z,15.00
2022-11-16T09:43:31.969Z,15.74
2022-11-16T09:46:07.458Z,15.83
2022-11-16T09:48:37.641Z,16.22
2022-11-16T09:51:08.941Z,15.14
2022-11-16T09:53:46.195Z,15.36
2022-11-16T09:56:22.300Z,15.76
2022-11-16T09:58:55.570Z,15.32
2022-11-16T10:01:40.178Z,14.75
2022-11-16T10:04:27.252Z,14.11
2022-11-16T10:07:06.327Z,14.80
2022-11-16T10:09:33.142Z,15.70
2022-11-16T10:11:59.521Z,16.35
2022-11-16T10:14:51.177Z,15.57
2022-11-16T10:17:23.973Z,13.60
2022-11-16T10:19:56.421Z,13.54
2022-11-16T10:22:40.952Z,12.57
2022-11-16T10:25:21.100Z,13.31
2022-11-16T10:28:06.445Z,12.85
2022-11-16T10:30:48.457Z,13.04
2022-11-16T10:33:20.062Z,12.98
2022-11-16T10:35:53.999Z,12.59
2022-11-16T10:38:24.894Z,12.38
2022-11-16T10:40:56.552Z,12.50
2022-11-16T10:43:30.020Z,12.54
2022-11-16T10:46:01.140Z,12.44
2022-11-16T10:48:42.539Z,12.81
2022-11-16T10:51:10.493Z,13.14
2022-11-16T10:53:39.161Z,13.45
2022-11-16T10:56:31.946Z,13.12
2022-11-16T10:59:13.681Z,13.93
2022-11-16T11:01:43.545Z,13.55
2022-11-16T11:04:22.706Z,13.80
2022-11-16T11:06:57.512Z,14.83
2022-11-16T11:09:37.173Z,15.10
2022-11-16T11:12:36.733Z,14.68
2022-11-16T11:15:15.563Z,14.20
2022-11-16T11:17:44.648Z,13.06
2022-11-16T11:20:17.338Z,12.60
2022-11-16T11:23:02.534Z,12.75
2022-11-16T11:25:36.017Z,12.68
2022-11-16T11:28:23.381Z,12.04
2022-11-16T11:31:17.027Z,11.73
2022-11-16T11:33:49.998Z,11.96
2022-11-16T11:36:21.486Z,12.30
2022-11-16T11:39:01.446Z,11.98
2022-11-16T11:41:39.777Z,11.94
2022-11-16T11:44:17.611Z,12.27
2022-11-16T11:49:49.968Z,12.75
2022-11-16T11:52:31.151Z,11.88
2022-11-16T11:54:57.584Z,12.19
2022-11-16T11:57:24.900Z,11.84
2022-11-16T11:59:54.517Z,12.10
2022-11-16T12:02:54.846Z,12.16
2022-11-16T12:05:43.152Z,12.06
2022-11-16T12:08:47.425Z,11.96
2022-11-16T12:11:51.219Z,11.92
2022-11-16T12:14:32.785Z,11.79
2022-11-16T12:17:02.359Z,11.94
2022-11-16T12:19:58.112Z,12.36
2022-11-16T12:22:41.389Z,11.73
2022-11-16T12:25:07.852Z,11.30
2022-11-16T12:27:52.882Z,11.37
2022-11-16T12:30:21.784Z,11.73
2022-11-16T12:33:03.416Z,11.47
2022-11-16T12:35:53.041Z,11.46
2022-11-16T12:38:41.064Z,11.75
2022-11-16T12:41:43.913Z,11.01
2022-11-16T12:44:14.716Z,11.41
2022-11-16T12:47:07.755Z,11.27
2022-11-16T12:49:43.346Z,11.04
2022-11-16T12:52:21.104Z,10.87
2022-11-16T12:55:26.014Z,10.80
2022-11-16T12:58:37.672Z,11.15
2022-11-16T13:01:29.213Z,11.11
2022-11-16T13:04:03.723Z,10.83
2022-11-16T13:06:36.732Z,10.96
2022-11-16T13:09:13.645Z,11.02
2022-11-16T13:11:45.793Z,11.02
2022-11-16T13:14:17.864Z,11.50
2022-11-16T13:16:46.333Z,11.04
2022-11-16T13:19:15.709Z,11.06
2022-11-16T13:21:48.236Z,11.14
2022-11-16T13:24:46.781Z,11.39
2022-11-16T13:27:24.210Z,11.39
2022-11-16T13:29:57.563Z,11.61
2022-11-16T13:32:33.926Z,11.62
2022-11-16T13:35:03.931Z,11.61
2022-11-16T13:37:39.445Z,11.60
2022-11-16T13:40:05.845Z,11.69
2022-11-16T13:42:35.755Z,12.22
2022-11-16T13:45:16.775Z,11.54
2022-11-16T13:47:52.837Z,11.95
2022-11-16T13:50:22.601Z,12.12
2022-11-16T13:54:17.578Z,11.88
2022-11-16T13:55:42.843Z,11.83
2022-11-16T13:58:12.843Z,11.58
2022-11-16T14:00:40.536Z,11.58
2022-11-16T14:03:16.290Z,11.40
2022-11-16T14:05:45.099Z,11.00
2022-11-16T14:08:37.251Z,11.16
2022-11-16T14:11:05.336Z,10.93
2022-11-16T14:13:47.017Z,11.04
2022-11-16T14:16:19.574Z,11.02
2022-11-16T14:18:53.772Z,10.90
2022-11-16T14:21:31.863Z,10.91
2022-11-16T14:24:17.099Z,10.86
2022-11-16T14:27:08.569Z,10.71
2022-11-16T14:29:47.158Z,10.68
2022-11-16T14:32:23.498Z,10.92
2022-11-16T14:34:52.199Z,10.93
2022-11-16T14:37:40.293Z,11.02
2022-11-16T14:40:13.907Z,10.93
2022-11-16T14:43:14.930Z,10.95
2022-11-16T14:45:38.443Z,10.83
2022-11-16T14:48:20.061Z,10.52
2022-11-16T14:51:24.789Z,10.58
2022-11-16T14:54:01.949Z,10.64
2022-11-16T14:56:28.556Z,10.48
2022-11-16T14:59:00.253Z,10.53
2022-11-16T15:01:30.241Z,10.53
2022-11-16T15:04:04.859Z,10.59
2022-11-16T15:06:56.448Z,10.80
2022-11-16T15:09:28.962Z,10.76
2022-11-16T15:12:16.173Z,10.92
2022-11-16T15:14:52.192Z,10.79
2022-11-16T15:17:22.488Z,10.53
2022-11-16T15:20:00.894Z,10.61
2022-11-16T15:22:30.600Z,10.57
2022-11-16T15:24:59.365Z,10.67
2022-11-16T15:27:32.535Z,10.74
2022-11-16T15:30:01.801Z,10.74
2022-11-16T15:32:28.479Z,10.87
2022-11-16T15:34:55.048Z,10.79
2022-11-16T15:37:29.249Z,10.71
2022-11-16T15:39:57.830Z,10.71
2022-11-16T15:42:26.805Z,10.49
2022-11-16T15:44:54.344Z,10.27
2022-11-16T15:47:22.304Z,10.41
2022-11-16T15:49:52.964Z,10.31
2022-11-16T15:52:49.436Z,10.18
2022-11-16T15:55:34.069Z,10.22
2022-11-16T15:58:25.854Z,10.21
2022-11-16T16:00:53.481Z,10.21
2022-11-16T16:03:26.062Z,10.20
2022-11-16T16:05:54.438Z,10.10
2022-11-16T16:08:35.791Z,10.23
2022-11-16T16:11:27.255Z,10.25
2022-11-16T16:13:59.901Z,10.23
2022-11-16T16:16:28.129Z,10.13
2022-11-16T16:18:58.152Z,10.10
2022-11-16T16:21:26.135Z,9.96
2022-11-16T16:23:54.759Z,9.90
2022-11-16T16:26:22.231Z,9.86
2022-11-16T16:28:50.683Z,9.90
2022-11-16T16:31:19.116Z,9.95
2022-11-16T16:33:45.519Z,10.02
2022-11-16T16:36:13.491Z,9.99
2022-11-16T16:38:40.194Z,10.03
2022-11-16T16:41:06.877Z,10.10
2022-11-16T16:43:33.980Z,9.93
2022-11-16T16:46:02.195Z,9.81
2022-11-16T16:48:28.894Z,9.67
2022-11-16T16:50:55.351Z,9.61
2022-11-16T16:53:21.835Z,9.56
2022-11-16T16:55:48.898Z,9.47
2022-11-16T16:58:16.125Z,9.48
2022-11-16T17:00:42.868Z,9.56
2022-11-16T17:03:09.597Z,9.56
2022-11-16T17:05:36.326Z,9.48
2022-11-16T17:08:03.066Z,9.62
2022-11-16T17:10:29.838Z,9.54
2022-11-16T17:12:57.255Z,9.59
2022-11-16T17:15:24.076Z,9.57
2022-11-16T17:17:50.658Z,9.46
2022-11-16T17:20:17.281Z,9.31
2022-11-16T17:22:43.880Z,9.31
2022-11-16T17:25:10.675Z,9.20
2022-11-16T17:27:37.189Z,8.99
2022-11-16T17:30:04.221Z,8.97
2022-11-16T17:32:30.804Z,8.96
2022-11-16T17:34:57.243Z,9.01
2022-11-16T17:37:23.850Z,9.08
2022-11-16T17:39:50.290Z,9.08
2022-11-16T17:42:16.811Z,9.10
2022-11-16T17:44:43.221Z,9.06
2022-11-16T17:47:09.705Z,9.07
2022-11-16T17:49:36.120Z,9.15
2022-11-16T17:52:02.933Z,9.13
2022-11-16T17:54:29.348Z,8.99
2022-11-16T17:56:55.797Z,9.07
2022-11-16T17:59:27.923Z,9.11
2022-11-16T18:01:57.604Z,9.21
2022-11-16T18:04:24.449Z,9.06
2022-11-16T18:06:50.921Z,9.12
2022-11-16T18:09:18.672Z,9.11
2022-11-16T18:11:45.190Z,8.99
2022-11-16T18:14:11.642Z,8.98
2022-11-16T18:16:40.945Z,8.95
2022-11-16T18:19:07.462Z,9.08
2022-11-16T18:21:41.012Z,9.27
2022-11-16T18:24:08.082Z,9.23
2022-11-16T18:26:34.821Z,9.15
2022-11-16T18:29:01.350Z,8.94
2022-11-16T18:31:29.627Z,8.89
2022-11-16T18:33:56.095Z,8.94
2022-11-16T18:36:22.968Z,8.91
2022-11-16T18:38:49.759Z,8.90
2022-11-16T18:41:19.900Z,8.93
2022-11-16T18:43:54.738Z,8.98
2022-11-16T18:46:25.832Z,8.96
2022-11-16T18:48:52.497Z,9.06
2022-11-16T18:51:20.939Z,9.02
2022-11-16T18:53:47.629Z,9.00
2022-11-16T18:56:15.057Z,8.80
2022-11-16T18:58:51.268Z,8.84
2022-11-16T19:01:20.949Z,8.94
2022-11-16T19:03:47.821Z,8.93
2022-11-16T19:06:15.762Z,8.74
2022-11-16T19:08:42.780Z,8.84
2022-11-16T19:11:11.835Z,8.82
2022-11-16T19:13:40.132Z,8.95
2022-11-16T19:16:07.947Z,8.93
2022-11-16T19:18:35.453Z,9.01
2022-11-16T19:21:07.672Z,9.09
2022-11-16T19:23:38.594Z,9.19
2022-11-16T19:26:06.313Z,9.17
2022-11-16T19:28:40.473Z,9.16
2022-11-16T19:31:12.362Z,9.09
2022-11-16T19:33:39.332Z,9.12
2022-11-16T19:36:18.197Z,9.09
2022-11-16T19:38:46.853Z,9.04
2022-11-16T19:41:14.912Z,8.95
2022-11-16T19:43:42.182Z,8.82
2022-11-16T19:46:16.685Z,8.49
2022-11-16T19:48:44.336Z,8.43
2022-11-16T19:51:13.739Z,8.58
2022-11-16T19:53:40.416Z,8.57
2022-11-16T19:56:09.886Z,8.71
2022-11-16T19:58:38.299Z,8.70
2022-11-16T20:01:07.448Z,8.67
2022-11-16T20:03:34.823Z,8.76
2022-11-16T20:06:13.575Z,8.67
2022-11-16T20:08:41.504Z,8.53
2022-11-16T20:11:15.165Z,8.71
2022-11-16T20:13:42.444Z,8.73
2022-11-16T20:16:11.081Z,8.86
2022-11-16T20:18:38.378Z,8.85
2022-11-16T20:21:06.016Z,8.92
2022-11-16T20:23:37.634Z,9.04
2022-11-16T20:26:10.000Z,9.00
2022-11-16T20:28:38.233Z,8.91
2022-11-16T20:31:08.521Z,9.04
2022-11-16T20:33:35.250Z,8.89
2022-11-16T20:36:06.930Z,8.99
2022-11-16T20:38:34.409Z,9.04
2022-11-16T20:41:15.255Z,9.12
2022-11-16T20:43:43.362Z,9.06
2022-11-16T20:46:15.022Z,9.08
2022-11-16T20:48:42.748Z,8.98
2022-11-16T20:51:12.622Z,8.95
2022-11-16T20:53:39.186Z,8.99
2022-11-16T20:56:07.628Z,8.78
2022-11-16T20:58:34.670Z,8.89
2022-11-16T21:01:02.724Z,8.85
2022-11-16T21:03:29.239Z,8.82
2022-11-16T21:05:55.978Z,8.87
2022-11-16T21:08:23.881Z,8.86
2022-11-16T21:10:50.294Z,8.78
2022-11-16T21:13:37.823Z,8.85
2022-11-16T21:16:11.351Z,8.70
2022-11-16T21:18:39.432Z,8.65
2022-11-16T21:21:14.062Z,8.60
2022-11-16T21:23:49.900Z,8.47
2022-11-16T21:26:16.314Z,8.58
2022-11-16T21:28:45.786Z,8.61
2022-11-16T21:31:25.669Z,8.68
2022-11-16T21:33:53.477Z,8.65
2022-11-16T21:36:22.594Z,8.38
2022-11-16T21:38:50.040Z,8.29
2022-11-16T21:41:18.426Z,8.32
2022-11-16T21:43:45.354Z,8.14
2022-11-16T21:46:17.238Z,8.09
2022-11-16T21:48:44.343Z,8.14
2022-11-16T21:51:13.453Z,8.16
2022-11-16T21:53:40.182Z,8.13
2022-11-16T21:56:11.456Z,8.18
2022-11-16T21:58:39.132Z,8.00
2022-11-16T22:01:05.958Z,7.89
2022-11-16T22:03:33.127Z,7.85
2022-11-16T22:06:21.301Z,7.93
2022-11-16T22:08:48.671Z,8.01
2022-11-16T22:11:16.085Z,8.17
2022-11-16T22:13:43.343Z,8.27
2022-11-16T22:16:12.125Z,8.33
2022-11-16T22:18:39.067Z,8.33
2022-11-16T22:21:05.847Z,8.36
2022-11-16T22:23:32.899Z,8.26
2022-11-16T22:26:04.932Z,8.38
2022-11-16T22:28:33.156Z,8.33
2022-11-16T22:31:04.967Z,8.39
2022-11-16T22:33:32.726Z,8.43
2022-11-16T22:35:59.658Z,8.48
2022-11-16T22:38:26.501Z,8.30
2022-11-16T22:40:54.813Z,8.34
2022-11-16T22:43:23.771Z,8.25
2022-11-16T22:45:50.678Z,8.12
2022-11-16T22:48:17.768Z,8.21
2022-11-16T22:50:44.227Z,8.25
2022-11-16T22:53:10.680Z,8.26
2022-11-16T22:55:38.548Z,8.32
2022-11-16T22:58:05.459Z,8.33
2022-11-16T23:00:37.466Z,8.30
2022-11-16T23:03:07.324Z,8.07
2022-11-16T23:05:33.868Z,8.05
2022-11-16T23:08:00.302Z,8.20
2022-11-16T23:10:26.770Z,8.29
2022-11-16T23:13:12.034Z,8.50
2022-11-16T23:15:50.330Z,8.40
2022-11-16T23:18:17.500Z,8.59
2022-11-16T23:21:02.381Z,8.74
2022-11-16T23:23:47.297Z,8.79
2022-11-16T23:26:41.073Z,8.70
2022-11-16T23:29:11.439Z,8.82
2022-11-16T23:31:38.416Z,8.63
2022-11-16T23:34:05.815Z,8.54
2022-11-16T23:36:32.364Z,8.65
2022-11-16T23:38:58.906Z,8.70
2022-11-16T23:41:43.590Z,8.69
2022-11-16T23:44:10.043Z,8.56
2022-11-16T23:46:36.640Z,8.74
2022-11-16T23:49:03.133Z,8.79
2022-11-16T23:51:29.486Z,8.82
2022-11-16T23:53:55.974Z,8.67
2022-11-16T23:56:23.230Z,8.77
2022-11-16T23:58:50.118Z,8.77
